Главная страница
METAR-TAF:

METAR-TAF

Аэропорты :

Oswego County Airport

Фултон, Нью-Йорк, США

широта: 43-21-03N, долгота: 076-23-17W, высота над уровнем моря: 145 м

Текущие метеонаблюдения

Эта сводка был подготовлена 1 час и 1 минут назад, в 11:54 UTC
Ветер 14 Узел от юго-западный с порывами до 24 Узел
Температура -5°C
Влажность 63%
Давление 1005 hPa
Видимость: 11.3 км
Рассеянная облачность на высоте 3700 фута
Сплошная облачность на высоте 4600 фута
небольшой снег

METAR: KFZY 281154Z AUTO 23014G24KT 7SM -SN BKN037 OVC046 M05/M11 A2967 RMK AO2 UPB48E52SNB47E48B52 SLP053 P0000 60000 T10501106 11044 21056 52011 $

Время: 07:55 (12:55 UTC)


TAF: отсутствует

Метеонаблюдения и прогнозы для более 4000 аэропортов (сводки METAR и TAF).

Имеющиеся станции представлены на карте желтыми и красными точками.

Чтобы увидеть название станции, наведите на нее мышь.

Затем щелкните, чтобы увидеть метеонаблюдения и метеопрогнозы.

Управление картой: чтобы увеличить масштаб, щелкните зеленые кнопки с черным крестиком; чтобы уменьшить масштаб, щелкните зеленую кнопку с тире; для просмотра соседних карт щелкайте зеленые стрелки.


METAR-TAF: